Time;durP1;ratioP1;P1;durP2;ratioP2;P2;SDS_P1;SDS_P2;PMS_P1;PMS_P2;Temp;Humidity;BMP_temperature;BMP_pressure;BME280_temperature;BME280_humidity;BME280_pressure;Samples;Min_cycle;Max_cycle;Signal;HPM_P1;HPM_P2
2022/01/27 07:02:04;;;;;;;177.02;54.97;;;;;;;;;;5037043;23;20124;-82
2022/01/27 07:04:31;;;;;;;183.48;57.75;;;;;;;;;;4837117;29;20050;-83
2022/01/27 07:06:58;;;;;;;185.68;55.47;;;;;;;;;;4836282;29;20041;-83
2022/01/27 07:09:24;;;;;;;168.85;52.97;;;;;;;;;;4835485;29;20058;-83
2022/01/27 07:11:51;;;;;;;194.43;60.50;;;;;;;;;;4821463;29;20097;-83
2022/01/27 07:14:18;;;;;;;191.05;61.53;;;;;;;;;;4836759;29;20088;-83
2022/01/27 07:16:44;;;;;;;206.82;62.20;;;;;;;;;;4834500;29;20076;-83
2022/01/27 07:19:11;;;;;;;188.02;62.13;;;;;;;;;;4834934;29;20574;-82
2022/01/27 07:21:38;;;;;;;203.05;61.30;;;;;;;;;;4815795;29;20054;-83
2022/01/27 07:24:05;;;;;;;188.57;59.60;;;;;;;;;;4833163;29;20047;-82
2022/01/27 07:26:31;;;;;;;192.60;59.95;;;;;;;;;;4836201;29;20069;-83
2022/01/27 07:28:58;;;;;;;205.55;59.80;;;;;;;;;;4836419;29;20117;-82
2022/01/27 07:31:25;;;;;;;188.30;57.88;;;;;;;;;;4834891;29;20528;-82
2022/01/27 07:33:52;;;;;;;193.63;61.13;;;;;;;;;;4836966;29;20176;-83
2022/01/27 07:36:20;;;;;;;197.23;61.90;;;;;;;;;;4835332;29;20042;-83
2022/01/27 07:38:50;;;;;;;195.23;60.08;;;;;;;;;;4836840;29;20088;-83
2022/01/27 07:41:17;;;;;;;193.38;58.50;;;;;;;;;;4838169;29;20049;-83
2022/01/27 07:43:45;;;;;;;187.43;58.17;;;;;;;;;;4835790;29;20057;-83
2022/01/27 07:46:12;;;;;;;193.57;58.58;;;;;;;;;;4835500;29;20053;-82
2022/01/27 07:48:41;;;;;;;211.40;62.33;;;;;;;;;;4835678;29;20042;-82
2022/01/27 07:51:09;;;;;;;205.98;63.17;;;;;;;;;;4835539;29;20648;-82
2022/01/27 07:53:37;;;;;;;205.00;66.78;;;;;;;;;;4837917;29;20050;-83
2022/01/27 07:56:23;;;;;;;208.02;66.75;;;;;;;;;;4834814;29;21005;-83
2022/01/27 07:58:50;;;;;;;208.93;66.88;;;;;;;;;;4836200;29;20137;-83
2022/01/27 08:01:17;;;;;;;209.65;66.05;;;;;;;;;;4834887;29;20054;-82
2022/01/27 08:03:44;;;;;;;196.90;65.22;;;;;;;;;;4835409;29;20058;-82
2022/01/27 08:06:10;;;;;;;200.20;59.80;;;;;;;;;;4834639;29;20097;-82
2022/01/27 08:08:37;;;;;;;194.50;59.20;;;;;;;;;;4837632;29;20053;-82
2022/01/27 08:11:04;;;;;;;197.50;62.60;;;;;;;;;;4836216;29;20420;-82
2022/01/27 08:13:31;;;;;;;219.48;72.25;;;;;;;;;;4835945;29;20050;-82
2022/01/27 08:15:58;;;;;;;212.00;69.25;;;;;;;;;;4840246;29;20500;-81
2022/01/27 08:18:43;;;;;;;211.75;66.40;;;;;;;;;;4839246;29;20042;-82
2022/01/27 08:21:10;;;;;;;213.98;65.75;;;;;;;;;;4838654;29;20050;-81
2022/01/27 08:23:38;;;;;;;196.70;62.92;;;;;;;;;;4841004;29;20053;-82
2022/01/27 08:26:08;;;;;;;210.75;64.60;;;;;;;;;;4838995;29;20511;-81
2022/01/27 08:31:05;;;;;;;197.15;61.10;;;;;;;;;;4838185;29;20054;-82
2022/01/27 08:33:36;;;;;;;189.90;64.70;;;;;;;;;;4840109;29;20861;-82
2022/01/27 08:36:04;;;;;;;192.38;62.83;;;;;;;;;;4838642;29;20050;-83
2022/01/27 08:38:31;;;;;;;200.20;63.03;;;;;;;;;;4841832;29;20050;-82
2022/01/27 08:41:01;;;;;;;203.00;64.38;;;;;;;;;;4823469;29;20061;-83
2022/01/27 08:43:27;;;;;;;196.70;65.88;;;;;;;;;;4836330;29;20126;-83
2022/01/27 08:45:54;;;;;;;216.15;69.85;;;;;;;;;;4840414;29;20140;-83
2022/01/27 08:48:21;;;;;;;209.60;68.55;;;;;;;;;;4838262;29;20046;-82
2022/01/27 08:50:58;;;;;;;211.60;68.60;;;;;;;;;;4839463;29;20851;-83
2022/01/27 08:53:45;;;;;;;200.35;66.18;;;;;;;;;;4839500;29;20057;-83
2022/01/27 08:56:13;;;;;;;192.27;66.47;;;;;;;;;;4839306;29;20049;-82
2022/01/27 08:58:40;;;;;;;199.18;65.57;;;;;;;;;;4838350;29;20045;-83
2022/01/27 09:01:06;;;;;;;198.07;65.10;;;;;;;;;;4837901;29;20058;-82
2022/01/27 09:03:35;;;;;;;197.88;64.13;;;;;;;;;;4838137;29;20550;-83
2022/01/27 09:06:21;;;;;;;207.18;64.88;;;;;;;;;;4837531;29;20038;-83
2022/01/27 09:08:50;;;;;;;181.48;61.58;;;;;;;;;;4822624;29;20054;-82
2022/01/27 09:11:17;;;;;;;187.57;63.70;;;;;;;;;;4840779;29;20046;-83
2022/01/27 09:13:44;;;;;;;181.73;61.88;;;;;;;;;;4837455;29;20095;-82
2022/01/27 09:16:11;;;;;;;192.75;61.70;;;;;;;;;;4838893;29;20098;-82
2022/01/27 09:18:38;;;;;;;194.25;62.28;;;;;;;;;;4838096;29;20228;-83
2022/01/27 09:21:14;;;;;;;209.52;62.55;;;;;;;;;;4837463;29;20054;-82
2022/01/27 09:23:41;;;;;;;197.07;62.65;;;;;;;;;;4839765;29;20046;-83
2022/01/27 09:26:21;;;;;;;180.60;62.28;;;;;;;;;;4838130;29;20070;-82
2022/01/27 09:28:48;;;;;;;187.20;64.47;;;;;;;;;;4837583;29;20058;-83
2022/01/27 09:31:14;;;;;;;187.23;62.45;;;;;;;;;;4837260;29;20045;-83
2022/01/27 09:33:41;;;;;;;193.00;62.42;;;;;;;;;;4823615;29;20046;-83
2022/01/27 09:36:11;;;;;;;192.02;65.13;;;;;;;;;;4837552;29;20046;-82
2022/01/27 09:38:38;;;;;;;194.25;66.18;;;;;;;;;;4840096;29;20046;-83
2022/01/27 09:41:11;;;;;;;186.50;64.30;;;;;;;;;;4838973;29;20526;-83
2022/01/27 09:43:37;;;;;;;186.52;66.65;;;;;;;;;;4823340;29;20087;-83
2022/01/27 09:46:07;;;;;;;187.18;65.13;;;;;;;;;;4836799;29;20090;-82
2022/01/27 09:48:40;;;;;;;185.73;65.20;;;;;;;;;;4824239;29;20065;-84
2022/01/27 09:51:43;;;;;;;186.93;68.53;;;;;;;;;;4837074;29;20507;-82
2022/01/27 09:53:59;;;;;;;182.45;64.30;;;;;;;;;;4823955;29;20583;-83
2022/01/27 09:56:26;;;;;;;181.98;63.72;;;;;;;;;;4839784;29;20049;-83
2022/01/27 09:59:04;;;;;;;170.15;61.72;;;;;;;;;;4840270;29;20054;-84
2022/01/27 10:01:30;;;;;;;161.90;60.30;;;;;;;;;;4836037;29;20045;-83
2022/01/27 10:04:01;;;;;;;170.38;60.17;;;;;;;;;;4823081;29;20081;-83
2022/01/27 10:06:31;;;;;;;158.65;56.50;;;;;;;;;;4837232;29;20054;-83
2022/01/27 10:09:12;;;;;;;153.75;55.35;;;;;;;;;;4827008;29;20061;-83
2022/01/27 10:11:40;;;;;;;156.30;54.45;;;;;;;;;;4838274;29;20106;-84
2022/01/27 10:14:38;;;;;;;150.48;55.22;;;;;;;;;;4837460;29;20055;-83
2022/01/27 10:17:11;;;;;;;147.30;55.58;;;;;;;;;;4833742;29;20106;-79
2022/01/27 10:19:38;;;;;;;144.80;52.63;;;;;;;;;;4838604;29;20423;-81
2022/01/27 10:22:09;;;;;;;143.57;51.85;;;;;;;;;;4836071;29;20478;-80
2022/01/27 10:24:36;;;;;;;139.52;54.00;;;;;;;;;;4836367;29;20045;-83
2022/01/27 10:27:23;;;;;;;139.13;53.65;;;;;;;;;;4836856;29;20046;-83
2022/01/27 10:32:46;;;;;;;138.05;52.08;;;;;;;;;;4835507;29;20057;-82
2022/01/27 10:35:15;;;;;;;138.35;52.53;;;;;;;;;;4838713;29;20427;-81
2022/01/27 10:38:06;;;;;;;133.35;51.25;;;;;;;;;;4835760;29;20469;-82
2022/01/27 10:40:42;;;;;;;128.57;51.75;;;;;;;;;;4836286;29;20042;-82
2022/01/27 10:43:14;;;;;;;127.50;51.03;;;;;;;;;;4836500;29;20049;-83
2022/01/27 10:46:00;;;;;;;128.65;50.92;;;;;;;;;;4837637;29;20050;-83
2022/01/27 10:48:31;;;;;;;136.77;54.60;;;;;;;;;;4837053;29;20053;-83
2022/01/27 10:51:08;;;;;;;142.85;58.83;;;;;;;;;;4822973;29;20514;-83
2022/01/27 10:54:17;;;;;;;151.55;66.40;;;;;;;;;;4822511;29;20122;-83
2022/01/27 10:56:43;;;;;;;155.55;72.07;;;;;;;;;;4837044;29;20050;-83
2022/01/27 10:59:17;;;;;;;165.68;74.57;;;;;;;;;;4837971;29;20046;-83
2022/01/27 11:01:47;;;;;;;;;;;;;;;;;;4836375;29;20109;-83
2022/01/27 11:04:16;;;;;;;134.00;53.78;;;;;;;;;;4837897;29;20513;-82
2022/01/27 11:07:03;;;;;;;126.75;51.47;;;;;;;;;;4837919;29;20423;-82
2022/01/27 11:09:37;;;;;;;122.70;51.40;;;;;;;;;;4835343;29;20049;-83
2022/01/27 11:12:12;;;;;;;128.02;52.28;;;;;;;;;;4835692;29;20576;-81
2022/01/27 11:14:40;;;;;;;117.90;50.22;;;;;;;;;;4837734;29;20094;-83
2022/01/27 11:17:09;;;;;;;113.35;49.45;;;;;;;;;;4836902;29;20115;-82
2022/01/27 11:27:28;;;;;;;;;;;;;;;;;;4837580;29;20046;-83
2022/01/27 11:30:05;;;;;;;116.97;47.47;;;;;;;;;;4821832;29;19928;-84
2022/01/27 11:32:35;;;;;;;114.55;46.15;;;;;;;;;;4835556;29;20054;-83
2022/01/27 11:35:19;;;;;;;115.28;48.88;;;;;;;;;;4822486;29;20054;-83
2022/01/27 11:37:51;;;;;;;135.70;61.80;;;;;;;;;;4835699;29;20076;-84
2022/01/27 11:40:20;;;;;;;129.23;58.15;;;;;;;;;;4834810;29;20054;-83
2022/01/27 11:42:56;;;;;;;111.95;46.55;;;;;;;;;;4835635;29;20114;-84
2022/01/27 11:45:23;;;;;;;101.82;45.10;;;;;;;;;;4835435;29;20440;-85
2022/01/27 11:47:52;;;;;;;94.20;43.70;;;;;;;;;;4837764;29;20062;-85
2022/01/27 11:50:50;;;;;;;104.35;44.10;;;;;;;;;;4840803;29;20081;-85
2022/01/27 11:53:12;;;;;;;96.55;42.55;;;;;;;;;;4840376;29;20099;-84
2022/01/27 11:55:44;;;;;;;97.35;45.88;;;;;;;;;;4839471;29;20098;-85
2022/01/27 11:58:17;;;;;;;97.78;43.13;;;;;;;;;;4840592;29;20046;-84
2022/01/27 12:01:11;;;;;;;88.50;41.83;;;;;;;;;;4838920;29;20111;-85
2022/01/27 12:03:38;;;;;;;93.70;40.20;;;;;;;;;;4838508;29;20115;-84
2022/01/27 12:06:22;;;;;;;90.95;40.90;;;;;;;;;;4823101;29;20069;-84
2022/01/27 12:08:48;;;;;;;84.60;39.63;;;;;;;;;;4841014;29;20050;-84
2022/01/27 12:11:45;;;;;;;87.30;38.03;;;;;;;;;;4838287;29;20312;-84
2022/01/27 12:14:14;;;;;;;80.38;38.03;;;;;;;;;;4840224;29;20102;-83
2022/01/27 12:16:53;;;;;;;76.78;36.65;;;;;;;;;;4838306;29;20111;-84
2022/01/27 12:19:20;;;;;;;77.55;36.28;;;;;;;;;;4840329;29;20045;-83
2022/01/27 12:21:54;;;;;;;74.22;33.70;;;;;;;;;;4838869;29;20558;-83
2022/01/27 12:24:28;;;;;;;76.38;35.05;;;;;;;;;;4838690;29;20053;-83
2022/01/27 12:27:05;;;;;;;69.78;35.03;;;;;;;;;;4826700;29;20082;-84
2022/01/27 12:29:55;;;;;;;60.47;28.13;;;;;;;;;;4838410;29;20053;-83
2022/01/27 12:32:28;;;;;;;53.60;25.65;;;;;;;;;;4837812;29;20477;-83
2022/01/27 12:34:58;;;;;;;43.17;21.73;;;;;;;;;;4839580;29;20469;-83
2022/01/27 12:37:34;;;;;;;43.50;20.95;;;;;;;;;;4836764;29;20114;-83
2022/01/27 12:40:05;;;;;;;40.13;21.70;;;;;;;;;;4838479;29;20086;-84
2022/01/27 12:42:36;;;;;;;37.25;19.95;;;;;;;;;;4838531;29;20477;-83
2022/01/27 12:45:08;;;;;;;35.15;18.10;;;;;;;;;;4838761;29;20057;-83
2022/01/27 12:47:40;;;;;;;32.53;15.57;;;;;;;;;;4840533;29;20050;-84
2022/01/27 12:50:18;;;;;;;26.60;13.68;;;;;;;;;;4840156;29;20049;-83
2022/01/27 12:52:47;;;;;;;23.75;13.80;;;;;;;;;;4838844;29;20054;-83
2022/01/27 12:55:19;;;;;;;23.42;12.52;;;;;;;;;;4837857;29;20050;-82
2022/01/27 12:57:57;;;;;;;19.00;11.25;;;;;;;;;;4825052;29;20215;-83
2022/01/27 13:00:24;;;;;;;19.98;11.88;;;;;;;;;;4837460;29;20558;-83
2022/01/27 13:02:58;;;;;;;25.65;13.82;;;;;;;;;;4839026;29;20051;-83
2022/01/27 13:05:36;;;;;;;17.77;11.70;;;;;;;;;;4836947;29;20065;-83
2022/01/27 13:08:09;;;;;;;17.40;10.35;;;;;;;;;;4840697;29;20042;-82
2022/01/27 13:10:37;;;;;;;17.63;10.88;;;;;;;;;;4837759;29;20112;-83
2022/01/27 13:13:09;;;;;;;18.20;11.13;;;;;;;;;;4837387;29;20045;-83
2022/01/27 13:15:36;;;;;;;20.10;11.07;;;;;;;;;;4837861;29;20052;-84
2022/01/27 13:18:12;;;;;;;18.65;11.93;;;;;;;;;;4838252;29;20110;-83
2022/01/27 13:20:45;;;;;;;20.00;13.10;;;;;;;;;;4839804;29;20141;-84
2022/01/27 13:25:52;;;;;;;16.45;10.05;;;;;;;;;;4839349;29;20046;-84
2022/01/27 13:28:23;;;;;;;19.17;12.57;;;;;;;;;;4837323;29;20106;-82
2022/01/27 13:30:52;;;;;;;18.00;11.32;;;;;;;;;;4837880;29;20577;-84
2022/01/27 13:33:21;;;;;;;21.98;12.50;;;;;;;;;;4838031;29;20098;-83
2022/01/27 13:35:49;;;;;;;21.20;12.73;;;;;;;;;;4837904;29;20079;-82
2022/01/27 13:38:22;;;;;;;18.02;11.20;;;;;;;;;;4839453;29;20082;-83
2022/01/27 13:41:16;;;;;;;18.75;10.45;;;;;;;;;;4837940;29;20061;-84
2022/01/27 13:44:28;;;;;;;15.50;9.63;;;;;;;;;;4837123;29;20091;-84
2022/01/27 13:46:59;;;;;;;15.38;9.15;;;;;;;;;;4783899;29;20517;-83
2022/01/27 13:49:32;;;;;;;15.73;8.57;;;;;;;;;;4782737;30;20054;-84
2022/01/27 13:51:59;;;;;;;15.30;10.40;;;;;;;;;;4783013;30;20047;-83
2022/01/27 13:54:31;;;;;;;18.70;9.32;;;;;;;;;;4783390;30;20055;-84
2022/01/27 13:57:14;;;;;;;17.38;9.63;;;;;;;;;;4769414;30;20059;-84
2022/01/27 13:59:41;;;;;;;16.00;8.60;;;;;;;;;;4783048;30;20051;-84
2022/01/27 14:02:19;;;;;;;17.73;8.90;;;;;;;;;;4783375;29;20050;-84
2022/01/27 14:04:52;;;;;;;20.95;9.25;;;;;;;;;;4782802;29;20676;-83
2022/01/27 14:07:33;;;;;;;16.45;9.18;;;;;;;;;;4782600;30;20559;-84
2022/01/27 14:10:20;;;;;;;16.83;9.45;;;;;;;;;;4782309;29;20577;-84
2022/01/27 14:15:53;;;;;;;12.73;5.90;;;;;;;;;;4782353;29;20116;-84
2022/01/27 14:18:39;;;;;;;19.17;12.18;;;;;;;;;;4772405;29;20051;-83
2022/01/27 14:21:06;;;;;;;12.85;7.57;;;;;;;;;;4797976;29;20049;-83
2022/01/27 14:23:41;;;;;;;15.95;6.85;;;;;;;;;;4838855;29;20050;-84
2022/01/27 14:26:18;;;;;;;28.42;16.00;;;;;;;;;;4837345;29;20050;-83
2022/01/27 14:28:46;;;;;;;24.45;10.80;;;;;;;;;;4836831;29;20115;-83
2022/01/27 14:31:13;;;;;;;4.68;2.63;;;;;;;;;;4836105;29;20042;-84
2022/01/27 14:33:40;;;;;;;10.63;6.05;;;;;;;;;;4836018;29;20057;-85
2022/01/27 14:36:06;;;;;;;9.02;4.50;;;;;;;;;;4837068;29;20121;-84
2022/01/27 14:38:33;;;;;;;7.53;4.13;;;;;;;;;;4839307;29;20072;-84
2022/01/27 14:41:00;;;;;;;8.32;2.90;;;;;;;;;;4832509;29;20439;-84
2022/01/27 14:43:29;;;;;;;7.28;3.42;;;;;;;;;;4835820;29;20053;-85
2022/01/27 14:45:58;;;;;;;;;;;;;;;;;;4838096;29;20077;-85
2022/01/27 14:48:37;;;;;;;7.93;3.08;;;;;;;;;;4839119;29;19987;-84
2022/01/27 14:51:04;;;;;;;7.25;2.63;;;;;;;;;;4837651;29;20051;-84
2022/01/27 14:53:31;;;;;;;8.57;3.47;;;;;;;;;;4839442;29;20059;-84
2022/01/27 14:55:57;;;;;;;7.70;2.70;;;;;;;;;;4838494;29;20061;-83
2022/01/27 14:58:24;;;;;;;5.05;2.40;;;;;;;;;;4838062;29;20087;-83
2022/01/27 15:00:50;;;;;;;4.07;2.10;;;;;;;;;;4837630;29;20060;-85
2022/01/27 15:03:17;;;;;;;7.60;2.80;;;;;;;;;;4837376;29;20061;-85
2022/01/27 15:05:44;;;;;;;9.52;4.03;;;;;;;;;;4838061;29;20054;-83
2022/01/27 15:08:15;;;;;;;8.35;2.80;;;;;;;;;;4839106;29;20056;-83
2022/01/27 15:10:42;;;;;;;6.50;2.72;;;;;;;;;;4822053;29;20042;-83
2022/01/27 15:13:11;;;;;;;4.85;2.28;;;;;;;;;;4836392;29;20102;-83
2022/01/27 15:19:02;;;;;;;4.65;2.40;;;;;;;;;;4836144;29;20430;-84
2022/01/27 15:21:20;;;;;;;8.95;2.63;;;;;;;;;;4821533;29;20074;-84
2022/01/27 15:23:48;;;;;;;6.82;3.38;;;;;;;;;;4837045;29;20046;-83
2022/01/27 15:26:16;;;;;;;7.03;2.80;;;;;;;;;;4838448;29;20102;-84
2022/01/27 15:28:44;;;;;;;6.00;2.55;;;;;;;;;;4836101;29;20507;-84
2022/01/27 15:31:11;;;;;;;6.88;2.72;;;;;;;;;;4835085;29;20046;-83
2022/01/27 15:33:40;;;;;;;9.07;2.33;;;;;;;;;;4837167;29;20530;-84
2022/01/27 15:36:09;;;;;;;9.98;4.25;;;;;;;;;;4835229;29;20103;-84
2022/01/27 15:38:37;;;;;;;4.63;2.20;;;;;;;;;;4838075;29;20045;-84
2022/01/27 15:41:04;;;;;;;9.55;3.90;;;;;;;;;;4836728;29;20054;-83
2022/01/27 15:43:32;;;;;;;7.43;2.67;;;;;;;;;;4835484;29;20128;-83
2022/01/27 15:46:01;;;;;;;7.13;2.53;;;;;;;;;;4838092;29;20584;-83
2022/01/27 15:48:28;;;;;;;8.27;3.72;;;;;;;;;;4838034;29;20458;-83
2022/01/27 15:50:56;;;;;;;10.38;5.10;;;;;;;;;;4821696;29;20046;-83
2022/01/27 15:53:22;;;;;;;8.05;3.83;;;;;;;;;;4838291;29;20071;-83
2022/01/27 15:55:49;;;;;;;6.03;3.17;;;;;;;;;;4835413;29;20476;-83
2022/01/27 15:58:16;;;;;;;8.48;3.58;;;;;;;;;;4835654;29;20042;-85
2022/01/27 16:00:44;;;;;;;9.20;3.65;;;;;;;;;;4836936;29;20049;-84
2022/01/27 16:03:12;;;;;;;5.03;2.67;;;;;;;;;;4833865;29;20436;-83
2022/01/27 16:05:38;;;;;;;5.10;3.13;;;;;;;;;;4835590;29;20083;-83
2022/01/27 16:08:05;;;;;;;7.47;2.92;;;;;;;;;;4835987;29;20138;-83
2022/01/27 16:10:32;;;;;;;8.27;3.25;;;;;;;;;;4835748;29;20061;-83
2022/01/27 16:12:59;;;;;;;12.27;4.13;;;;;;;;;;4835212;29;20094;-83
2022/01/27 16:15:27;;;;;;;12.00;4.47;;;;;;;;;;4834165;29;20058;-84
2022/01/27 16:17:54;;;;;;;;;;;;;;;;;;4820801;29;20058;-83
2022/01/27 16:20:23;;;;;;;7.32;2.60;;;;;;;;;;4842116;29;19928;-82
2022/01/27 16:22:53;;;;;;;10.15;4.88;;;;;;;;;;4845425;29;20049;-84
2022/01/27 16:25:20;;;;;;;12.23;5.60;;;;;;;;;;4839005;29;20046;-83
2022/01/27 16:27:47;;;;;;;9.38;4.80;;;;;;;;;;4831167;29;20054;-84
2022/01/27 16:30:14;;;;;;;9.80;3.42;;;;;;;;;;4820197;29;20050;-84
2022/01/27 16:32:40;;;;;;;8.65;4.28;;;;;;;;;;4835130;29;20114;-84
2022/01/27 16:35:10;;;;;;;9.80;4.85;;;;;;;;;;4837344;29;20507;-84
2022/01/27 16:37:37;;;;;;;11.55;5.80;;;;;;;;;;4839348;29;20169;-84
2022/01/27 16:40:07;;;;;;;9.18;4.90;;;;;;;;;;4838897;29;20057;-84
2022/01/27 16:42:33;;;;;;;8.82;3.70;;;;;;;;;;4838494;29;20114;-84
2022/01/27 16:45:00;;;;;;;12.73;4.63;;;;;;;;;;4839235;29;20128;-84
2022/01/27 16:47:27;;;;;;;14.82;5.00;;;;;;;;;;4840213;29;20109;-84
2022/01/27 16:49:54;;;;;;;14.25;6.40;;;;;;;;;;4835414;29;20522;-85
2022/01/27 16:52:24;;;;;;;15.77;6.60;;;;;;;;;;4837099;29;20045;-84
2022/01/27 16:54:51;;;;;;;15.10;7.65;;;;;;;;;;4839063;29;20165;-85
2022/01/27 16:57:18;;;;;;;15.52;6.10;;;;;;;;;;4838564;29;20122;-84
2022/01/27 16:59:46;;;;;;;11.57;6.35;;;;;;;;;;4837504;29;20042;-83
2022/01/27 17:02:15;;;;;;;16.50;6.35;;;;;;;;;;4838770;29;20085;-85
2022/01/27 17:04:44;;;;;;;12.93;6.50;;;;;;;;;;4839266;29;20076;-84
2022/01/27 17:07:11;;;;;;;;;;;;;;;;;;4838194;29;20045;-85
2022/01/27 17:09:38;;;;;;;15.20;8.38;;;;;;;;;;4823310;29;20495;-85
2022/01/27 17:12:05;;;;;;;12.23;6.63;;;;;;;;;;4835396;29;20054;-83
2022/01/27 17:14:33;;;;;;;33.63;16.08;;;;;;;;;;4837350;29;20106;-83
2022/01/27 17:17:00;;;;;;;26.75;13.10;;;;;;;;;;4837629;29;20519;-85
2022/01/27 17:19:27;;;;;;;16.20;8.45;;;;;;;;;;4837708;29;20045;-84
2022/01/27 17:22:00;;;;;;;19.17;11.35;;;;;;;;;;4838452;29;20055;-83
2022/01/27 17:24:29;;;;;;;19.95;8.05;;;;;;;;;;4836711;29;20070;-82
2022/01/27 17:26:56;;;;;;;12.55;7.70;;;;;;;;;;4822285;29;20053;-83
2022/01/27 17:29:23;;;;;;;18.02;8.13;;;;;;;;;;4839892;29;20050;-84
2022/01/27 17:31:49;;;;;;;18.85;7.93;;;;;;;;;;4837474;29;20042;-84
2022/01/27 17:34:16;;;;;;;15.25;7.50;;;;;;;;;;4836741;29;20515;-84
2022/01/27 17:36:42;;;;;;;16.10;8.45;;;;;;;;;;4837850;29;20054;-83
2022/01/27 17:39:10;;;;;;;15.95;7.82;;;;;;;;;;4829633;29;20102;-85
2022/01/27 17:41:39;;;;;;;67.57;37.42;;;;;;;;;;4810810;29;20054;-84
2022/01/27 17:44:15;;;;;;;67.90;36.53;;;;;;;;;;4838956;29;20154;-83
2022/01/27 17:46:45;;;;;;;26.85;16.92;;;;;;;;;;4835843;29;20046;-84
2022/01/27 17:49:13;;;;;;;20.65;13.40;;;;;;;;;;4821687;29;20427;-83
2022/01/27 17:51:42;;;;;;;31.92;19.25;;;;;;;;;;4836401;29;20042;-84
2022/01/27 17:54:10;;;;;;;142.93;79.97;;;;;;;;;;4836225;29;20213;-84
2022/01/27 17:56:37;;;;;;;59.90;35.47;;;;;;;;;;4838223;29;20515;-85
2022/01/27 17:59:04;;;;;;;39.78;25.10;;;;;;;;;;4828673;29;20470;-86
2022/01/27 18:01:32;;;;;;;35.92;24.02;;;;;;;;;;4815111;29;20049;-84
2022/01/27 18:03:59;;;;;;;23.15;14.07;;;;;;;;;;4811591;29;20053;-83
2022/01/27 18:06:27;;;;;;;29.63;15.70;;;;;;;;;;4826828;29;20062;-84
2022/01/27 18:08:55;;;;;;;26.75;15.70;;;;;;;;;;4827178;29;20174;-85
2022/01/27 18:11:29;;;;;;;28.20;17.80;;;;;;;;;;4823556;29;20068;-83
2022/01/27 18:13:58;;;;;;;27.15;14.95;;;;;;;;;;4817583;29;20510;-84
2022/01/27 18:16:24;;;;;;;;;;;;;;;;;;4837634;29;20114;-81
2022/01/27 18:18:51;;;;;;;28.85;14.10;;;;;;;;;;4834659;29;19932;-81
2022/01/27 18:21:21;;;;;;;28.48;20.30;;;;;;;;;;4836954;29;20797;-83
2022/01/27 18:23:47;;;;;;;27.50;15.27;;;;;;;;;;4836784;29;20578;-83
2022/01/27 18:26:14;;;;;;;23.33;11.98;;;;;;;;;;4837999;29;20090;-84
2022/01/27 18:28:43;;;;;;;22.10;13.45;;;;;;;;;;4837309;29;20046;-84
2022/01/27 18:31:10;;;;;;;26.30;14.85;;;;;;;;;;4836261;29;20065;-84
2022/01/27 18:33:39;;;;;;;25.83;13.23;;;;;;;;;;4835227;29;20110;-84
2022/01/27 18:36:06;;;;;;;24.55;11.68;;;;;;;;;;4836663;29;20129;-81
2022/01/27 18:38:34;;;;;;;21.88;11.38;;;;;;;;;;4836754;29;20054;-82
2022/01/27 18:41:00;;;;;;;25.58;12.65;;;;;;;;;;4833051;29;20057;-83
2022/01/27 18:43:27;;;;;;;22.42;13.15;;;;;;;;;;4829580;29;20050;-84
2022/01/27 18:45:54;;;;;;;20.80;13.68;;;;;;;;;;4838679;29;20053;-82
2022/01/27 18:48:22;;;;;;;27.58;13.57;;;;;;;;;;4818691;29;20075;-83
2022/01/27 18:50:52;;;;;;;19.75;9.73;;;;;;;;;;4837307;29;20054;-84
2022/01/27 18:53:19;;;;;;;20.80;9.68;;;;;;;;;;4836810;29;20137;-83
2022/01/27 18:55:45;;;;;;;17.40;10.23;;;;;;;;;;4818054;29;20317;-84
2022/01/27 18:58:12;;;;;;;18.10;10.38;;;;;;;;;;4828481;29;20050;-84
2022/01/27 19:00:39;;;;;;;17.15;10.40;;;;;;;;;;4808934;29;20057;-85
2022/01/27 19:03:07;;;;;;;18.30;10.10;;;;;;;;;;4807977;29;20260;-85
2022/01/27 19:05:36;;;;;;;17.85;9.45;;;;;;;;;;4822070;29;20058;-84
2022/01/27 19:08:03;;;;;;;16.08;10.07;;;;;;;;;;4821555;29;20057;-83
2022/01/27 19:10:30;;;;;;;17.80;10.10;;;;;;;;;;4810624;29;20055;-85
2022/01/27 19:12:57;;;;;;;22.27;12.13;;;;;;;;;;4828485;29;20962;-84
2022/01/27 19:15:24;;;;;;;19.20;11.18;;;;;;;;;;4827316;29;20054;-84
2022/01/27 19:17:51;;;;;;;19.05;10.27;;;;;;;;;;4815479;29;20050;-83
2022/01/27 19:20:20;;;;;;;18.33;10.77;;;;;;;;;;4828683;29;20114;-83
2022/01/27 19:22:48;;;;;;;33.63;17.45;;;;;;;;;;4830021;29;20046;-85
2022/01/27 19:25:15;;;;;;;19.92;10.30;;;;;;;;;;4834428;29;20050;-85
2022/01/27 19:27:42;;;;;;;19.25;10.50;;;;;;;;;;4832032;29;20093;-85
2022/01/27 19:30:10;;;;;;;13.10;7.25;;;;;;;;;;4818352;29;20069;-83
2022/01/27 19:32:42;;;;;;;15.77;9.20;;;;;;;;;;4833185;29;20046;-85
2022/01/27 19:35:09;;;;;;;11.50;7.57;;;;;;;;;;4818324;29;20046;-84
2022/01/27 19:37:35;;;;;;;20.75;9.18;;;;;;;;;;4834134;29;20057;-86
2022/01/27 19:40:02;;;;;;;12.73;7.75;;;;;;;;;;4816173;29;20054;-85
2022/01/27 19:42:29;;;;;;;16.40;8.45;;;;;;;;;;4830774;29;20050;-84
2022/01/27 19:44:56;;;;;;;21.17;9.85;;;;;;;;;;4818122;29;20468;-84
2022/01/27 19:47:25;;;;;;;20.42;9.98;;;;;;;;;;4837198;29;20068;-85
2022/01/27 19:49:53;;;;;;;17.83;9.45;;;;;;;;;;4816496;29;20054;-83
2022/01/27 19:52:23;;;;;;;24.23;14.43;;;;;;;;;;4830134;29;20054;-83
2022/01/27 19:54:50;;;;;;;24.88;11.13;;;;;;;;;;4834234;29;20046;-84
2022/01/27 19:57:17;;;;;;;24.10;14.93;;;;;;;;;;4834038;29;20054;-86
2022/01/27 19:59:44;;;;;;;36.28;21.15;;;;;;;;;;4834312;29;20106;-83
2022/01/27 20:02:12;;;;;;;47.20;26.33;;;;;;;;;;4826509;29;20929;-82
2022/01/27 20:04:39;;;;;;;50.80;33.10;;;;;;;;;;4831509;29;20060;-84
2022/01/27 20:07:17;;;;;;;59.45;27.30;;;;;;;;;;4835156;29;20110;-85
2022/01/27 20:09:45;;;;;;;76.88;37.83;;;;;;;;;;4836085;29;20523;-85
2022/01/27 20:12:15;;;;;;;192.02;89.82;;;;;;;;;;4820314;29;20050;-84
2022/01/27 20:14:46;;;;;;;194.80;88.55;;;;;;;;;;4836075;29;20061;-84
2022/01/27 20:17:13;;;;;;;115.70;46.20;;;;;;;;;;4821780;29;20106;-85
2022/01/27 20:19:48;;;;;;;115.55;52.15;;;;;;;;;;4834516;29;20065;-83
2022/01/27 20:22:16;;;;;;;55.15;25.80;;;;;;;;;;4837617;29;20098;-83
2022/01/27 20:24:42;;;;;;;25.58;13.73;;;;;;;;;;4820622;29;20109;-85
2022/01/27 20:27:09;;;;;;;16.67;10.02;;;;;;;;;;4838105;29;20058;-84
2022/01/27 20:29:36;;;;;;;13.77;5.97;;;;;;;;;;4821686;29;20110;-85
2022/01/27 20:32:03;;;;;;;14.75;5.32;;;;;;;;;;4834595;29;20054;-84
2022/01/27 20:34:49;;;;;;;15.43;5.78;;;;;;;;;;4823976;29;20131;-84
2022/01/27 20:37:16;;;;;;;15.15;5.55;;;;;;;;;;4832535;29;20572;-85
2022/01/27 20:39:43;;;;;;;16.73;5.53;;;;;;;;;;4836545;29;20062;-85
2022/01/27 20:42:09;;;;;;;17.08;6.03;;;;;;;;;;4831532;29;20053;-83
2022/01/27 20:44:36;;;;;;;15.23;6.93;;;;;;;;;;4827476;29;20423;-85
2022/01/27 20:47:03;;;;;;;19.58;6.55;;;;;;;;;;4830820;29;20392;-84
2022/01/27 20:49:32;;;;;;;18.30;7.47;;;;;;;;;;4825849;29;20083;-83
2022/01/27 20:51:58;;;;;;;12.75;6.40;;;;;;;;;;4844286;29;20916;-84
2022/01/27 20:54:25;;;;;;;18.05;6.22;;;;;;;;;;4816502;29;20053;-83
2022/01/27 20:56:53;;;;;;;22.67;6.18;;;;;;;;;;4827996;29;20049;-85
2022/01/27 20:59:19;;;;;;;10.23;6.10;;;;;;;;;;4836349;29;20042;-83
2022/01/27 21:01:56;;;;;;;12.52;6.00;;;;;;;;;;4816576;29;20050;-83
2022/01/27 21:04:23;;;;;;;22.65;5.93;;;;;;;;;;4835754;29;20057;-84
2022/01/27 21:06:51;;;;;;;18.95;5.40;;;;;;;;;;4843288;29;20465;-85
2022/01/27 21:09:21;;;;;;;11.93;4.75;;;;;;;;;;4832527;29;20148;-84
2022/01/27 21:11:48;;;;;;;14.30;5.25;;;;;;;;;;4845092;29;20049;-86
2022/01/27 21:14:14;;;;;;;15.13;5.20;;;;;;;;;;4843992;29;20102;-86
2022/01/27 21:16:41;;;;;;;21.58;5.95;;;;;;;;;;4812868;29;20050;-85
2022/01/27 21:19:09;;;;;;;11.20;5.63;;;;;;;;;;4834319;29;20125;-85
2022/01/27 21:21:37;;;;;;;14.70;5.03;;;;;;;;;;4840066;29;20050;-84
2022/01/27 21:24:05;;;;;;;13.77;4.85;;;;;;;;;;4844026;29;20058;-84
2022/01/27 21:26:32;;;;;;;19.50;5.22;;;;;;;;;;4831409;29;20065;-86
2022/01/27 21:28:58;;;;;;;16.70;4.70;;;;;;;;;;4833692;29;20054;-85
2022/01/27 21:31:25;;;;;;;14.30;5.30;;;;;;;;;;4820618;29;20058;-85
2022/01/27 21:33:55;;;;;;;15.80;4.53;;;;;;;;;;4843414;29;20064;-86
2022/01/27 21:36:22;;;;;;;15.00;4.43;;;;;;;;;;4832479;29;20241;-85
2022/01/27 21:38:48;;;;;;;16.42;5.05;;;;;;;;;;4832285;29;20046;-85
2022/01/27 21:41:15;;;;;;;40.28;18.35;;;;;;;;;;4845769;29;20056;-85
2022/01/27 21:43:42;;;;;;;19.55;6.13;;;;;;;;;;4841697;29;20050;-86
2022/01/27 21:46:10;;;;;;;16.33;6.65;;;;;;;;;;4826749;29;20051;-85
2022/01/27 21:48:38;;;;;;;13.07;6.68;;;;;;;;;;4823739;29;20050;-84
2022/01/27 21:51:05;;;;;;;14.90;7.38;;;;;;;;;;4822856;29;20054;-85
2022/01/27 21:53:32;;;;;;;20.48;7.97;;;;;;;;;;4835974;29;20038;-86
2022/01/27 21:55:58;;;;;;;20.17;8.20;;;;;;;;;;4825059;29;20054;-85
2022/01/27 21:58:26;;;;;;;21.60;8.95;;;;;;;;;;4827735;29;20054;-87
2022/01/27 22:00:53;;;;;;;30.00;11.02;;;;;;;;;;4834689;29;20829;-85